createdAt,value
2018-05-15T00:01:52.727Z,51.60
2018-05-15T00:04:21.121Z,50.78
2018-05-15T00:06:49.706Z,50.27
2018-05-15T00:09:18.116Z,51.83
2018-05-15T00:11:46.672Z,51.18
2018-05-15T00:14:15.168Z,51.52
2018-05-15T00:16:43.645Z,51.21
2018-05-15T00:19:12.054Z,51.15
2018-05-15T00:21:40.486Z,51.66
2018-05-15T00:24:08.914Z,52.18
2018-05-15T00:26:37.432Z,52.86
2018-05-15T00:29:05.951Z,51.76
2018-05-15T00:31:34.381Z,51.30
2018-05-15T00:34:07.682Z,51.46
2018-05-15T00:36:36.268Z,51.91
2018-05-15T00:39:05.823Z,52.21
2018-05-15T00:41:34.229Z,52.09
2018-05-15T00:44:05.680Z,51.43
2018-05-15T00:46:34.124Z,52.50
2018-05-15T00:49:02.593Z,52.23
2018-05-15T00:51:31.030Z,52.28
2018-05-15T00:53:59.594Z,51.92
2018-05-15T00:56:27.997Z,52.56
2018-05-15T00:58:58.115Z,52.29
2018-05-15T01:01:26.498Z,51.80
2018-05-15T01:03:54.913Z,52.34
2018-05-15T01:06:25.367Z,52.55
2018-05-15T01:08:53.764Z,52.77
2018-05-15T01:11:22.290Z,53.34
2018-05-15T01:13:50.670Z,53.18
2018-05-15T01:16:19.102Z,52.37
2018-05-15T01:18:47.570Z,53.35
2018-05-15T01:21:15.926Z,54.69
2018-05-15T01:23:44.429Z,52.68
2018-05-15T01:26:12.834Z,54.86
2018-05-15T01:28:41.252Z,52.81
2018-05-15T01:31:09.694Z,51.71
2018-05-15T01:33:38.183Z,53.01
2018-05-15T01:36:06.665Z,51.97
2018-05-15T01:38:35.587Z,53.87
2018-05-15T01:41:03.942Z,53.66
2018-05-15T01:43:32.349Z,54.53
2018-05-15T01:46:00.794Z,54.83
2018-05-15T01:48:29.325Z,56.37
2018-05-15T01:50:57.912Z,54.21
2018-05-15T01:53:26.356Z,54.79
2018-05-15T01:55:54.757Z,55.91
2018-05-15T01:58:23.141Z,54.47
2018-05-15T02:00:51.516Z,54.67
2018-05-15T02:03:19.950Z,54.60
2018-05-15T02:05:51.254Z,55.64
2018-05-15T02:08:19.644Z,54.25
2018-05-15T02:10:48.014Z,55.11
2018-05-15T02:13:16.398Z,54.85
2018-05-15T02:15:44.783Z,54.82
2018-05-15T02:18:13.241Z,55.08
2018-05-15T02:20:41.734Z,54.69
2018-05-15T02:23:10.115Z,55.61
2018-05-15T02:25:38.473Z,54.87
2018-05-15T02:28:06.918Z,54.44
2018-05-15T02:30:35.385Z,54.84
2018-05-15T02:33:03.717Z,56.05
2018-05-15T02:35:32.093Z,55.20
2018-05-15T02:38:00.455Z,56.00
2018-05-15T02:40:40.600Z,55.80
2018-05-15T02:43:09.154Z,56.89
2018-05-15T02:45:37.616Z,57.12
2018-05-15T02:48:06.024Z,56.22
2018-05-15T02:50:34.425Z,56.10
2018-05-15T02:53:02.869Z,55.34
2018-05-15T02:55:31.246Z,56.47
2018-05-15T02:57:59.726Z,55.83
2018-05-15T03:00:36.438Z,55.70
2018-05-15T03:03:05.431Z,56.97
2018-05-15T03:05:43.577Z,58.05
2018-05-15T03:08:11.948Z,57.58
2018-05-15T03:10:40.324Z,56.69
2018-05-15T03:13:08.716Z,56.81
2018-05-15T03:15:37.092Z,55.73
2018-05-15T03:18:10.340Z,55.39
2018-05-15T03:20:38.845Z,56.95
2018-05-15T03:23:07.264Z,57.00
2018-05-15T03:25:35.675Z,57.46
2018-05-15T03:28:04.953Z,55.78
2018-05-15T03:30:33.482Z,56.14
2018-05-15T03:33:01.862Z,56.03
2018-05-15T03:35:30.254Z,56.31
2018-05-15T03:37:58.657Z,55.72
2018-05-15T03:40:27.047Z,55.08
2018-05-15T03:42:55.478Z,55.79
2018-05-15T03:45:23.897Z,56.28
2018-05-15T03:47:52.327Z,56.50
2018-05-15T03:50:20.762Z,56.23
2018-05-15T03:52:51.093Z,55.45
2018-05-15T03:55:19.540Z,55.65
2018-05-15T03:57:47.941Z,55.07
2018-05-15T04:00:28.097Z,55.16
2018-05-15T04:03:08.336Z,55.22
2018-05-15T04:05:48.626Z,55.23
2018-05-15T04:08:17.188Z,54.92
2018-05-15T04:10:45.750Z,54.34
2018-05-15T04:13:14.637Z,55.05
2018-05-15T04:15:44.326Z,53.40
2018-05-15T04:18:12.765Z,53.97
2018-05-15T04:20:41.169Z,54.05
2018-05-15T04:23:09.600Z,53.99
2018-05-15T04:25:38.194Z,53.33
2018-05-15T04:28:06.688Z,53.64
2018-05-15T04:30:35.138Z,52.95
2018-05-15T04:33:03.537Z,55.40
2018-05-15T04:35:32.786Z,53.67
2018-05-15T04:38:02.010Z,53.38
2018-05-15T04:40:31.438Z,53.07
2018-05-15T04:42:59.850Z,52.11
2018-05-15T04:45:28.270Z,51.99
2018-05-15T04:47:56.703Z,50.74
2018-05-15T04:50:25.182Z,51.81
2018-05-15T04:52:57.461Z,50.61
2018-05-15T04:55:25.890Z,49.13
2018-05-15T04:57:54.460Z,49.23
2018-05-15T05:00:22.882Z,49.58
2018-05-15T05:02:51.297Z,48.83
2018-05-15T05:05:21.581Z,49.11
2018-05-15T05:07:50.014Z,49.55
2018-05-15T05:10:18.554Z,49.88
2018-05-15T05:12:46.945Z,49.47
2018-05-15T05:15:16.274Z,49.73
2018-05-15T05:17:44.704Z,49.36
2018-05-15T05:20:13.114Z,49.45
2018-05-15T05:22:41.619Z,49.77
2018-05-15T05:25:10.003Z,49.01
2018-05-15T05:27:43.562Z,47.90
2018-05-15T05:30:12.039Z,47.35
2018-05-15T05:32:40.484Z,42.37
2018-05-15T05:35:08.946Z,39.79
2018-05-15T05:37:37.398Z,36.65
2018-05-15T05:40:05.937Z,34.87
2018-05-15T05:42:34.373Z,33.25
2018-05-15T05:45:02.848Z,31.72
2018-05-15T05:47:31.270Z,30.60
2018-05-15T05:49:59.623Z,30.41
2018-05-15T05:52:28.168Z,28.84
2018-05-15T05:54:56.652Z,29.78
2018-05-15T05:57:25.059Z,27.36
2018-05-15T05:59:53.464Z,26.62
2018-05-15T06:02:21.919Z,28.73
2018-05-15T06:04:50.693Z,27.03
2018-05-15T06:07:20.120Z,25.83
2018-05-15T06:09:48.562Z,24.15
2018-05-15T06:12:16.988Z,28.12
2018-05-15T06:14:45.537Z,28.10
2018-05-15T06:17:13.982Z,28.84
2018-05-15T06:19:42.506Z,27.60
2018-05-15T06:22:11.046Z,25.20
2018-05-15T06:24:39.496Z,24.85
2018-05-15T06:27:07.943Z,25.46
2018-05-15T06:29:36.517Z,24.70
2018-05-15T06:32:05.001Z,23.73
2018-05-15T06:34:34.465Z,23.60
2018-05-15T06:37:03.046Z,24.70
2018-05-15T06:39:31.502Z,22.98
2018-05-15T06:41:59.934Z,22.83
2018-05-15T06:44:28.417Z,22.20
2018-05-15T06:46:56.851Z,22.29
2018-05-15T06:49:25.323Z,23.27
2018-05-15T06:51:53.761Z,22.78
2018-05-15T06:54:22.188Z,21.33
2018-05-15T06:56:50.738Z,20.97
2018-05-15T06:59:19.179Z,22.53
2018-05-15T07:01:47.985Z,21.52
2018-05-15T07:04:16.392Z,24.11
2018-05-15T07:06:44.922Z,23.16
2018-05-15T07:09:13.481Z,22.49
2018-05-15T07:11:41.980Z,24.46
2018-05-15T07:14:10.637Z,21.88
2018-05-15T07:16:39.031Z,20.74
2018-05-15T07:19:07.425Z,20.59
2018-05-15T07:21:35.877Z,20.43
2018-05-15T07:24:04.365Z,21.52
2018-05-15T07:26:34.024Z,21.38
2018-05-15T07:29:03.394Z,20.84
2018-05-15T07:31:31.858Z,18.51
2018-05-15T07:34:00.318Z,19.49
2018-05-15T07:36:28.725Z,18.71
2018-05-15T07:38:57.366Z,19.21
2018-05-15T07:41:25.923Z,21.33
2018-05-15T07:43:54.423Z,19.94
2018-05-15T07:46:22.850Z,18.66
2018-05-15T07:48:51.288Z,21.78
2018-05-15T07:51:19.820Z,20.37
2018-05-15T07:53:48.255Z,19.86
2018-05-15T07:56:16.657Z,20.41
2018-05-15T07:58:45.329Z,19.44
2018-05-15T08:01:13.864Z,18.50
2018-05-15T08:03:42.255Z,18.75
2018-05-15T08:06:10.915Z,18.90
2018-05-15T08:08:39.395Z,20.13
2018-05-15T08:11:08.815Z,19.82
2018-05-15T08:13:37.442Z,19.00
2018-05-15T08:16:06.129Z,17.79
2018-05-15T08:18:34.625Z,19.58
2018-05-15T08:21:03.159Z,21.72
2018-05-15T08:23:40.452Z,19.61
2018-05-15T08:26:08.946Z,19.74
2018-05-15T08:28:37.459Z,19.69
2018-05-15T08:31:06.106Z,19.74
2018-05-15T08:33:34.534Z,19.28
2018-05-15T08:36:04.897Z,20.24
2018-05-15T08:38:33.552Z,19.13
2018-05-15T08:41:01.964Z,17.98
2018-05-15T08:43:30.387Z,19.67
2018-05-15T08:45:58.848Z,19.63
2018-05-15T08:48:27.306Z,18.60
2018-05-15T08:50:55.740Z,20.46
2018-05-15T08:53:24.126Z,19.08
2018-05-15T08:55:52.594Z,19.79
2018-05-15T08:58:21.299Z,18.04
2018-05-15T09:00:50.381Z,18.64
2018-05-15T09:03:18.916Z,17.94
2018-05-15T09:05:47.339Z,17.33
2018-05-15T09:08:15.755Z,18.45
2018-05-15T09:10:44.266Z,18.67
2018-05-15T09:13:12.749Z,19.05
2018-05-15T09:18:24.535Z,19.97
2018-05-15T09:20:52.941Z,18.57
2018-05-15T09:23:23.254Z,19.07
2018-05-15T09:25:51.681Z,18.64
2018-05-15T09:28:20.110Z,18.15
2018-05-15T09:30:51.487Z,19.59
2018-05-15T09:33:19.942Z,20.30
2018-05-15T09:35:48.379Z,19.11
2018-05-15T09:38:16.839Z,18.94
2018-05-15T09:40:46.607Z,18.32
2018-05-15T09:43:26.706Z,18.37
2018-05-15T09:45:55.131Z,19.23
2018-05-15T09:48:23.516Z,19.40
2018-05-15T09:50:54.037Z,19.85
2018-05-15T09:53:22.669Z,22.65
2018-05-15T09:55:51.553Z,21.99
2018-05-15T09:58:20.260Z,21.32
2018-05-15T10:00:50.008Z,23.71
2018-05-15T10:03:18.713Z,24.04
2018-05-15T10:05:47.233Z,21.95
2018-05-15T10:08:15.863Z,21.40
2018-05-15T10:10:44.289Z,22.04
2018-05-15T10:13:13.707Z,23.97
2018-05-15T10:15:44.753Z,24.29
2018-05-15T10:18:13.338Z,22.25
2018-05-15T10:20:45.614Z,20.44
2018-05-15T10:23:14.007Z,19.97
2018-05-15T10:25:42.446Z,18.61
2018-05-15T10:28:11.809Z,19.05
2018-05-15T10:30:40.177Z,19.36
2018-05-15T10:33:08.614Z,19.65
2018-05-15T10:35:36.982Z,19.95
2018-05-15T10:40:43.571Z,20.75
2018-05-15T10:43:12.346Z,20.22
2018-05-15T10:45:40.994Z,19.23
2018-05-15T10:48:13.176Z,19.14
2018-05-15T10:50:41.688Z,18.83
2018-05-15T10:53:10.170Z,18.99
2018-05-15T10:55:38.556Z,18.61
2018-05-15T10:58:07.098Z,18.62
2018-05-15T11:00:35.518Z,18.59
2018-05-15T11:03:04.109Z,17.54
2018-05-15T11:05:32.563Z,18.10
2018-05-15T11:08:02.168Z,21.36
2018-05-15T11:10:30.752Z,23.66
2018-05-15T11:12:59.229Z,24.22
2018-05-15T11:15:27.809Z,24.74
2018-05-15T11:17:56.227Z,25.61
2018-05-15T11:20:36.409Z,25.39
2018-05-15T11:23:16.789Z,26.92
2018-05-15T11:25:45.226Z,27.17
2018-05-15T11:28:13.659Z,27.62
2018-05-15T11:30:42.156Z,28.00
2018-05-15T11:33:10.656Z,28.29
2018-05-15T11:35:39.171Z,28.46
2018-05-15T11:38:07.630Z,27.12
2018-05-15T11:40:36.067Z,28.14
2018-05-15T11:43:04.483Z,28.79
2018-05-15T11:45:32.889Z,27.75
2018-05-15T11:48:03.396Z,26.87
2018-05-15T11:50:32.712Z,25.83
2018-05-15T11:53:00.818Z,25.25
2018-05-15T11:55:28.708Z,25.73
2018-05-15T11:57:57.322Z,26.43
2018-05-15T12:00:25.771Z,25.03
2018-05-15T12:02:54.236Z,26.63
2018-05-15T12:05:22.802Z,26.20
2018-05-15T12:07:51.198Z,25.67
2018-05-15T12:10:19.574Z,26.13
2018-05-15T12:12:48.846Z,26.50
2018-05-15T12:15:17.362Z,26.77
2018-05-15T12:17:45.861Z,25.64
2018-05-15T12:20:14.428Z,25.85
2018-05-15T12:22:42.838Z,26.81
2018-05-15T12:25:11.309Z,26.72
2018-05-15T12:27:43.321Z,26.32
2018-05-15T12:30:09.538Z,26.70
2018-05-15T12:32:37.933Z,27.15
2018-05-15T12:35:06.325Z,27.04
2018-05-15T12:37:34.797Z,27.14
2018-05-15T12:40:03.316Z,27.45
2018-05-15T12:42:31.839Z,25.73
2018-05-15T12:45:01.293Z,26.36
2018-05-15T12:47:29.768Z,25.06
2018-05-15T12:49:58.398Z,25.49
2018-05-15T12:52:26.954Z,24.94
2018-05-15T12:54:56.581Z,25.83
2018-05-15T12:57:25.094Z,26.12
2018-05-15T12:59:53.582Z,26.69
2018-05-15T13:11:25.438Z,27.33
2018-05-15T13:13:53.845Z,26.59
2018-05-15T13:16:22.301Z,25.88
2018-05-15T13:18:50.816Z,25.93
2018-05-15T13:21:19.331Z,25.66
2018-05-15T13:23:47.831Z,24.59
2018-05-15T13:26:16.329Z,25.44
2018-05-15T13:28:44.858Z,25.35
2018-05-15T13:31:13.402Z,26.55
2018-05-15T13:33:41.890Z,26.44
2018-05-15T13:36:10.479Z,25.94
2018-05-15T13:38:38.912Z,25.89
2018-05-15T13:41:07.392Z,26.82
2018-05-15T13:43:35.863Z,26.41
2018-05-15T13:46:04.280Z,25.37
2018-05-15T13:48:32.782Z,25.64
2018-05-15T13:51:01.270Z,26.41
2018-05-15T13:53:29.807Z,25.65
2018-05-15T13:55:58.639Z,26.04
2018-05-15T13:58:27.106Z,27.64
2018-05-15T14:00:55.624Z,27.44
2018-05-15T14:03:24.195Z,27.92
2018-05-15T14:05:52.658Z,29.10
2018-05-15T14:08:21.073Z,28.76
2018-05-15T14:10:49.638Z,28.31
2018-05-15T14:13:18.261Z,29.50
2018-05-15T14:15:46.728Z,29.57
2018-05-15T14:18:15.186Z,28.69
2018-05-15T14:20:43.749Z,29.40
2018-05-15T14:23:12.147Z,29.12
2018-05-15T14:25:40.581Z,28.96
2018-05-15T14:28:09.108Z,28.31
2018-05-15T14:30:37.571Z,28.13
2018-05-15T14:33:05.999Z,28.81
2018-05-15T14:35:34.473Z,27.30
2018-05-15T14:38:02.913Z,27.73
2018-05-15T14:40:31.317Z,27.81
2018-05-15T14:43:11.590Z,27.73
2018-05-15T14:45:39.953Z,27.77
2018-05-15T14:48:08.480Z,30.01
2018-05-15T14:50:48.697Z,29.57
2018-05-15T14:53:17.117Z,29.60
2018-05-15T14:55:45.647Z,28.69
2018-05-15T14:58:14.177Z,27.70
2018-05-15T15:00:42.582Z,28.87
2018-05-15T15:03:10.991Z,29.27
2018-05-15T15:05:39.451Z,28.98
2018-05-15T15:08:07.870Z,28.46
2018-05-15T15:10:36.338Z,27.46
2018-05-15T15:13:04.783Z,28.04
2018-05-15T15:15:33.210Z,27.61
2018-05-15T15:18:01.683Z,29.04
2018-05-15T15:20:30.080Z,28.97
2018-05-15T15:22:58.558Z,28.25
2018-05-15T15:25:26.971Z,28.52
2018-05-15T15:27:55.562Z,27.64
2018-05-15T15:30:24.046Z,27.21
2018-05-15T15:32:52.542Z,29.16
2018-05-15T15:35:21.035Z,28.54
2018-05-15T15:37:49.493Z,28.65
2018-05-15T15:40:17.922Z,29.51
2018-05-15T15:42:46.388Z,29.73
2018-05-15T15:45:14.862Z,29.75
2018-05-15T15:47:43.302Z,29.72
2018-05-15T15:50:11.708Z,29.81
2018-05-15T15:52:40.160Z,30.55
2018-05-15T15:55:08.666Z,31.30
2018-05-15T15:57:52.462Z,30.46
2018-05-15T16:00:22.529Z,29.40
2018-05-15T16:02:53.646Z,29.53
2018-05-15T16:05:22.088Z,30.15
2018-05-15T16:07:50.786Z,30.31
2018-05-15T16:10:19.229Z,29.13
2018-05-15T16:12:47.637Z,30.32
2018-05-15T16:15:16.131Z,29.89
2018-05-15T16:17:44.653Z,30.22
2018-05-15T16:20:13.063Z,29.17
2018-05-15T16:22:41.616Z,29.36
2018-05-15T16:25:09.988Z,30.59
2018-05-15T16:27:38.383Z,31.48
2018-05-15T16:30:06.998Z,30.99
2018-05-15T16:32:35.633Z,30.70
2018-05-15T16:35:04.085Z,30.29
2018-05-15T16:37:32.675Z,29.80
2018-05-15T16:40:01.118Z,29.66
2018-05-15T16:42:29.615Z,29.62
2018-05-15T16:44:58.277Z,30.39
2018-05-15T16:47:26.907Z,30.62
2018-05-15T16:49:55.381Z,30.17
2018-05-15T16:52:23.818Z,30.40
2018-05-15T16:54:52.793Z,30.59
2018-05-15T16:57:21.228Z,30.79
2018-05-15T16:59:49.829Z,30.74
2018-05-15T17:02:18.270Z,31.47
2018-05-15T17:04:46.683Z,31.64
2018-05-15T17:07:15.158Z,31.97
2018-05-15T17:09:43.615Z,31.68
2018-05-15T17:12:12.118Z,31.57
2018-05-15T17:14:42.473Z,32.32
2018-05-15T17:17:10.988Z,31.58
2018-05-15T17:19:39.447Z,33.00
2018-05-15T17:22:07.881Z,31.74
2018-05-15T17:24:36.671Z,33.02
2018-05-15T17:27:05.117Z,33.22
2018-05-15T17:29:33.555Z,32.25
2018-05-15T17:32:02.083Z,32.87
2018-05-15T17:34:31.689Z,33.39
2018-05-15T17:37:00.408Z,33.03
2018-05-15T17:39:28.971Z,32.59
2018-05-15T17:41:57.510Z,33.41
2018-05-15T17:44:26.029Z,32.95
2018-05-15T17:46:54.556Z,32.96
2018-05-15T17:49:23.069Z,33.35
2018-05-15T17:51:51.523Z,33.78
2018-05-15T17:54:19.942Z,33.83
2018-05-15T17:56:48.429Z,33.68
2018-05-15T17:59:16.835Z,34.10
2018-05-15T18:01:45.325Z,34.26
2018-05-15T18:04:13.962Z,33.96
2018-05-15T18:06:42.459Z,34.00
2018-05-15T18:09:10.980Z,33.96
2018-05-15T18:11:41.416Z,33.91
2018-05-15T18:14:09.901Z,33.85
2018-05-15T18:16:38.326Z,34.53
2018-05-15T18:19:06.802Z,34.81
2018-05-15T18:21:35.269Z,35.09
2018-05-15T18:24:03.730Z,36.47
2018-05-15T18:26:32.279Z,36.50
2018-05-15T18:29:00.804Z,39.32
2018-05-15T18:31:29.264Z,41.84
2018-05-15T18:33:57.774Z,43.33
2018-05-15T18:36:26.319Z,44.24
2018-05-15T18:38:54.894Z,45.28
2018-05-15T18:41:23.323Z,47.27
2018-05-15T18:43:51.769Z,47.68
2018-05-15T18:46:20.306Z,48.55
2018-05-15T18:48:49.022Z,49.77
2018-05-15T18:51:17.525Z,51.99
2018-05-15T18:53:45.969Z,53.98
2018-05-15T18:56:14.433Z,54.95
2018-05-15T18:58:42.954Z,54.93
2018-05-15T19:01:15.203Z,55.24
2018-05-15T19:03:43.732Z,55.60
2018-05-15T19:06:14.070Z,54.58
2018-05-15T19:08:42.440Z,56.02
2018-05-15T19:11:10.838Z,56.86
2018-05-15T19:13:39.399Z,56.57
2018-05-15T19:16:07.941Z,56.91
2018-05-15T19:18:37.624Z,56.99
2018-05-15T19:21:05.991Z,54.98
2018-05-15T19:23:34.382Z,55.97
2018-05-15T19:26:02.793Z,55.73
2018-05-15T19:28:31.279Z,55.56
2018-05-15T19:30:59.708Z,56.08
2018-05-15T19:33:33.745Z,55.96
2018-05-15T19:36:07.751Z,56.00
2018-05-15T19:38:36.214Z,56.82
2018-05-15T19:41:06.524Z,56.59
2018-05-15T19:43:34.926Z,57.14
2018-05-15T19:46:03.323Z,58.24
2018-05-15T19:48:31.833Z,60.98
2018-05-15T19:51:00.435Z,59.96
2018-05-15T19:53:28.890Z,63.12
2018-05-15T19:55:57.648Z,63.02
2018-05-15T19:58:26.131Z,62.79
2018-05-15T20:00:54.677Z,63.92
2018-05-15T20:03:23.166Z,63.61
2018-05-15T20:05:51.546Z,64.19
2018-05-15T20:08:20.077Z,62.87
2018-05-15T20:10:48.481Z,60.83
2018-05-15T20:13:16.891Z,61.92
2018-05-15T20:15:45.525Z,51.13
2018-05-15T20:18:14.070Z,51.46
2018-05-15T20:20:42.574Z,48.37
2018-05-15T20:23:11.144Z,48.69
2018-05-15T20:25:39.985Z,49.87
2018-05-15T20:28:08.396Z,50.23
2018-05-15T20:30:37.000Z,51.94
2018-05-15T20:33:05.741Z,52.18
2018-05-15T20:35:34.247Z,51.76
2018-05-15T20:38:02.775Z,53.68
2018-05-15T20:40:31.292Z,53.10
2018-05-15T20:42:59.887Z,53.59
2018-05-15T20:45:28.417Z,57.76
2018-05-15T20:47:57.684Z,58.14
2018-05-15T20:50:26.274Z,59.92
2018-05-15T20:52:54.841Z,58.64
2018-05-15T20:55:24.910Z,58.29
2018-05-15T20:57:53.459Z,59.13
2018-05-15T21:00:22.015Z,58.58
2018-05-15T21:02:50.495Z,57.61
2018-05-15T21:05:19.014Z,57.73
2018-05-15T21:07:47.390Z,58.82
2018-05-15T21:10:15.983Z,60.12
2018-05-15T21:12:44.382Z,59.38
2018-05-15T21:15:12.915Z,57.45
2018-05-15T21:17:41.203Z,58.27
2018-05-15T21:20:09.629Z,60.32
2018-05-15T21:22:38.010Z,59.79
2018-05-15T21:25:06.542Z,59.21
2018-05-15T21:27:34.980Z,60.52
2018-05-15T21:30:03.380Z,62.65
2018-05-15T21:32:31.762Z,62.24
2018-05-15T21:35:00.307Z,61.11
2018-05-15T21:37:28.790Z,60.09
2018-05-15T21:39:57.320Z,61.63
2018-05-15T21:42:25.759Z,62.76
2018-05-15T21:44:54.127Z,61.71
2018-05-15T21:47:22.618Z,61.87
2018-05-15T21:49:51.489Z,61.02
2018-05-15T21:52:20.417Z,62.35
2018-05-15T21:54:48.832Z,63.99
2018-05-15T21:57:18.157Z,64.15
2018-05-15T21:59:46.606Z,62.13
2018-05-15T22:02:15.079Z,62.52
2018-05-15T22:04:44.049Z,65.90
2018-05-15T22:07:12.636Z,64.15
2018-05-15T22:09:40.973Z,63.59
2018-05-15T22:12:21.035Z,66.33
2018-05-15T22:15:07.116Z,64.16
2018-05-15T22:17:53.387Z,64.07
2018-05-15T22:20:41.133Z,63.69
2018-05-15T22:23:14.847Z,63.02
2018-05-15T22:25:43.870Z,62.73
2018-05-15T22:28:13.142Z,63.23
2018-05-15T22:30:41.625Z,65.60
2018-05-15T22:33:10.024Z,62.29
2018-05-15T22:35:38.451Z,62.38
2018-05-15T22:38:06.982Z,63.72
2018-05-15T22:40:35.366Z,61.88
2018-05-15T22:43:03.916Z,63.19
2018-05-15T22:45:32.774Z,62.15
2018-05-15T22:48:01.249Z,64.98
2018-05-15T22:50:29.724Z,62.15
2018-05-15T22:52:58.760Z,63.16
2018-05-15T22:55:27.137Z,62.62
2018-05-15T22:57:55.685Z,65.55
2018-05-15T23:00:24.204Z,64.22
2018-05-15T23:02:52.666Z,63.96
2018-05-15T23:05:21.097Z,65.88
2018-05-15T23:07:49.501Z,61.54
2018-05-15T23:10:17.881Z,60.91
2018-05-15T23:12:46.307Z,63.38
2018-05-15T23:15:14.844Z,67.96
2018-05-15T23:17:43.250Z,65.17
2018-05-15T23:20:11.799Z,67.17
2018-05-15T23:22:43.108Z,67.08
2018-05-15T23:25:11.513Z,66.49
2018-05-15T23:27:39.983Z,65.45
2018-05-15T23:30:08.509Z,65.67
2018-05-15T23:32:36.990Z,63.78
2018-05-15T23:35:05.463Z,65.84
2018-05-15T23:37:33.934Z,65.15
2018-05-15T23:40:02.423Z,65.06
2018-05-15T23:42:30.913Z,66.75
2018-05-15T23:44:59.309Z,66.18
2018-05-15T23:47:27.686Z,66.89
2018-05-15T23:49:56.102Z,66.06
2018-05-15T23:52:24.517Z,65.25
2018-05-15T23:54:53.320Z,66.33
2018-05-15T23:57:21.760Z,67.88
2018-05-15T23:59:50.149Z,65.98
